Nearby METAR Reports

 


Warning: A non-numeric value encountered in /home/xyvgdlhh/subdom/perlaustsen/vejr/get-metar-conditions-inc.php on line 1011
KSJC - San Jose, California, USA
Distance from station: NØ 14km
Opdateret: 06/08/2020 16:53
Overskyet
Overskyet
 Vind retning SØ
Vind: SØ 15 km/h
Temperatur: 18°C
Dugpunkt: 12°C
Fugtighed: 68%
Barometer: 1012.5 hPa
Clouds: Overskyet
Visibility: 16 km
Cloud details: Few Clouds 335 m
Mest skyet 671 m
Overskyet 762 m
2020/08/06 14:53 KSJC 061453Z 14008KT 10SM FEW011 BKN022 OVC025 18/12 A2990 RMK AO2 SLP125 BINOVC DSNT SW-W T01780122 53002
KNUQ - Moffett Nas/Mtn, California, USA
Distance from station: N 14km
Opdateret: 06/08/2020 15:55
NOT Current
Overskyet
Overskyet
 Vind retning calm
Vind: Vindstille
Temperatur: 16°C
Dugpunkt: 13°C
Fugtighed: 83%
Barometer: 1012.5 hPa
Clouds: Overskyet
Visibility: 16 km
Cloud details: Overskyet 732 m
2020/08/06 13:55 KNUQ 061355Z AUTO 00000KT 10SM OVC024 16/13 A2990 RMK AO2
 
KPAO - Palo Alto, California, USA
Distance from station: NNV 23km
Opdateret: 06/08/2020 03:47
NOT Current
Overskyet
Overskyet
 Vind retning V
Vind: V 20 km/h, Vindstød: 33 km/h
Temperatur: 18°C
Dugpunkt: 12°C
Fugtighed: 68%
Barometer: 1014.6 hPa
Clouds: Overskyet
Visibility: 16 km
Cloud details: Overskyet 853 m
2020/08/06 01:47 KPAO 060147Z 26011G18KT 10SM OVC028 18/12 A2996
KRHV - San Jose/Reid, California, USA
Distance from station: ØNØ 19km
Opdateret: 06/08/2020 16:47
Overskyet
Overskyet
 Vind retning SØ
Vind: SØ 17 km/h
Temperatur: 17°C
Dugpunkt: 13°C
Fugtighed: 77%
Barometer: 1012.9 hPa
Clouds: Overskyet
Visibility: 16 km
Cloud details: Mest skyet 610 m
Overskyet 762 m
2020/08/06 14:47 KRHV 061447Z 14009KT 10SM BKN020 OVC025 17/13 A2991
 
KOAK - Oakland, California, USA
Distance from station: NNV 50km
Opdateret: 06/08/2020 16:53
Mest skyet
Mest skyet
 Vind retning SSV
Vind: SSV 6 km/h
Temperatur: 17°C
Dugpunkt: 12°C
Fugtighed: 73%
Barometer: 1012.9 hPa
Clouds: Mest skyet
Visibility: 14 km
Cloud details: Mest skyet 305 m
2020/08/06 14:53 KOAK 061453Z 21003KT 9SM BKN010 17/12 A2991 RMK AO2 SLP128 T01670122 53005
KSQL - San Carlos Airpo, California, USA
Distance from station: NV 34km
Opdateret: 06/08/2020 16:47
Few Clouds
Few Clouds
 Vind retning calm
Vind: Vindstille
Temperatur: 15°C
Dugpunkt: 12°C
Fugtighed: 82%
Barometer: 1012.9 hPa
Clouds: Few Clouds
Visibility: 0 km
Cloud details: Few Clouds 701 m
2020/08/06 14:47 KSQL 061447Z 00000KT FEW023SM FEW023 15/12 A2991
 
KSFO - San Francisco, California, USA
Distance from station: NV 49km
Opdateret: 06/08/2020 16:56
Mest skyet
Mest skyet
 Vind retning SSV
Vind: SSV 9 km/h
Temperatur: 16°C
Dugpunkt: 12°C
Fugtighed: 77%
Barometer: 1012.5 hPa
Clouds: Mest skyet
Visibility: 13 km
Cloud details: Mest skyet 335 m
2020/08/06 14:56 KSFO 061456Z 21005KT 8SM BKN011 16/12 A2990 RMK AO2 SLP125 T01610117 53003
KE16 - San Martin, California, USA
Distance from station: ØSØ 43km
Opdateret: 06/08/2020 16:50
Overskyet
Overskyet
 Vind retning ØSØ
Vind: ØSØ 11 km/h
Temperatur: 15°C
Dugpunkt: 13°C
Fugtighed: 88%
Barometer: 1014.2 hPa
Clouds: Overskyet
Visibility: 16 km
Cloud details: Overskyet 396 m
2020/08/06 14:50 KE16 061450Z AUTO 11006KT 10SM OVC013 15/13 A2995 RMK AO2 PWINO PNO
 
KWVI - Watsonville, California, USA
Distance from station: SSØ 44km
Opdateret: 06/08/2020 16:53
Overskyet
Overskyet
 Vind retning varies
Vind: varies 6 km/h
Barometer: 1013.5 hPa
Clouds: Overskyet
Visibility: 16 km
Cloud details: Mest skyet 244 m
Overskyet 671 m
2020/08/06 14:53 KWVI 061453Z AUTO VRB03KT 10SM BKN008 OVC022 A2993 RMK AO2 SLPNO 51006
KHAF - Half Moon Bay, California, USA
Distance from station: VNV 50km
Opdateret: 06/08/2020 16:55
Mist, Overskyet
Mist, Overskyet
 Vind retning S
Vind: S 7 km/h
Temperatur: 13°C
Dugpunkt: 12°C
Fugtighed: 94%
Barometer: 1013.2 hPa
Oversigt: Mist
Clouds: Overskyet
Visibility: 8 km
Cloud details: Overskyet 183 m
2020/08/06 14:55 KHAF 061455Z AUTO 17004KT 5SM BR OVC006 13/12 A2992 RMK AO2
 
KHWD - Hayward, California, USA
Distance from station: N 44km
Opdateret: 06/08/2020 16:54
Overskyet
Overskyet
 Vind retning VNV
Vind: VNV 7 km/h
Temperatur: 17°C
Dugpunkt: 12°C
Fugtighed: 73%
Barometer: 1012.5 hPa
Clouds: Overskyet
Visibility: 16 km
Cloud details: Few Clouds 335 m
Overskyet 671 m
2020/08/06 14:54 KHWD 061454Z AUTO 29004KT 10SM FEW011 OVC022 17/12 A2990 RMK AO2 SLP135 T01670122 53004
KLVK - Livermore, California, USA
Distance from station: NNØ 51km
Opdateret: 06/08/2020 16:53
Overskyet
Overskyet
 Vind retning NV
Vind: NV 9 km/h
Temperatur: 16°C
Dugpunkt: 13°C
Fugtighed: 83%
Barometer: 1012.5 hPa
Clouds: Overskyet
Visibility: 16 km
Cloud details: Overskyet 549 m
2020/08/06 14:53 KLVK 061453Z 32005KT 10SM OVC018 16/13 A2990 RMK AO2 SLP121 T01610128 52004